sensor_id;sensor_type;location;lat;lon;timestamp;pressure;altitude;pressure_sealevel;temperature;humidity
65329;BME280;51941;52.210;5.158;2023-04-16T00:00:21;102200.53;;;8.05;100.00
65329;BME280;51941;52.210;5.158;2023-04-16T00:02:48;102188.50;;;8.02;100.00
65329;BME280;51941;52.210;5.158;2023-04-16T00:05:15;102189.34;;;8.03;100.00
65329;BME280;51941;52.210;5.158;2023-04-16T00:07:41;102194.53;;;8.11;100.00
65329;BME280;51941;52.210;5.158;2023-04-16T00:10:08;102201.63;;;8.25;100.00
65329;BME280;51941;52.210;5.158;2023-04-16T00:12:36;102193.97;;;8.16;100.00
65329;BME280;51941;52.210;5.158;2023-04-16T00:15:03;102188.34;;;8.19;100.00
65329;BME280;51941;52.210;5.158;2023-04-16T00:17:30;102195.59;;;8.17;100.00
65329;BME280;51941;52.210;5.158;2023-04-16T00:19:57;102198.63;;;8.14;100.00
65329;BME280;51941;52.210;5.158;2023-04-16T00:22:23;102191.25;;;8.09;100.00
65329;BME280;51941;52.210;5.158;2023-04-16T00:24:50;102199.63;;;8.13;100.00
65329;BME280;51941;52.210;5.158;2023-04-16T00:27:18;102202.25;;;8.13;100.00
65329;BME280;51941;52.210;5.158;2023-04-16T00:29:47;102205.97;;;8.18;100.00
65329;BME280;51941;52.210;5.158;2023-04-16T00:32:15;102159.59;;;7.94;100.00
65329;BME280;51941;52.210;5.158;2023-04-16T00:34:42;102199.72;;;8.19;100.00
65329;BME280;51941;52.210;5.158;2023-04-16T00:37:08;102191.25;;;8.09;100.00
65329;BME280;51941;52.210;5.158;2023-04-16T00:39:36;102194.91;;;8.23;100.00
65329;BME280;51941;52.210;5.158;2023-04-16T00:42:03;102194.25;;;8.21;100.00
65329;BME280;51941;52.210;5.158;2023-04-16T00:44:29;102191.06;;;8.25;100.00
65329;BME280;51941;52.210;5.158;2023-04-16T00:47:00;102187.16;;;8.21;100.00
65329;BME280;51941;52.210;5.158;2023-04-16T00:49:27;102195.81;;;8.30;100.00
65329;BME280;51941;52.210;5.158;2023-04-16T00:51:55;102203.16;;;8.34;100.00
65329;BME280;51941;52.210;5.158;2023-04-16T00:54:23;102151.16;;;8.14;100.00
65329;BME280;51941;52.210;5.158;2023-04-16T00:56:51;102196.34;;;8.40;100.00
65329;BME280;51941;52.210;5.158;2023-04-16T00:59:17;102202.44;;;8.40;100.00
65329;BME280;51941;52.210;5.158;2023-04-16T01:01:44;102200.91;;;8.31;100.00
65329;BME280;51941;52.210;5.158;2023-04-16T01:04:12;102197.06;;;8.34;100.00
65329;BME280;51941;52.210;5.158;2023-04-16T01:06:41;102196.97;;;8.42;100.00
65329;BME280;51941;52.210;5.158;2023-04-16T01:09:08;102202.81;;;8.37;100.00
65329;BME280;51941;52.210;5.158;2023-04-16T01:11:35;102199.53;;;8.35;100.00
65329;BME280;51941;52.210;5.158;2023-04-16T01:14:02;102195.53;;;8.39;100.00
65329;BME280;51941;52.210;5.158;2023-04-16T01:16:30;102193.97;;;8.45;100.00
65329;BME280;51941;52.210;5.158;2023-04-16T01:18:57;102186.50;;;8.34;100.00
65329;BME280;51941;52.210;5.158;2023-04-16T01:21:26;102202.16;;;8.35;100.00
65329;BME280;51941;52.210;5.158;2023-04-16T01:23:52;102198.69;;;8.35;100.00
65329;BME280;51941;52.210;5.158;2023-04-16T01:26:19;102200.06;;;8.46;100.00
65329;BME280;51941;52.210;5.158;2023-04-16T01:28:46;102198.63;;;8.28;100.00
65329;BME280;51941;52.210;5.158;2023-04-16T01:31:12;102205.91;;;8.41;100.00
65329;BME280;51941;52.210;5.158;2023-04-16T01:33:49;102202.63;;;8.39;100.00
65329;BME280;51941;52.210;5.158;2023-04-16T01:36:16;102204.53;;;8.45;100.00
65329;BME280;51941;52.210;5.158;2023-04-16T01:38:45;102198.91;;;8.48;100.00
65329;BME280;51941;52.210;5.158;2023-04-16T01:41:12;102200.25;;;8.44;100.00
65329;BME280;51941;52.210;5.158;2023-04-16T01:43:40;102206.34;;;8.44;100.00
65329;BME280;51941;52.210;5.158;2023-04-16T01:46:12;102197.91;;;8.49;100.00
65329;BME280;51941;52.210;5.158;2023-04-16T01:48:39;102203.44;;;8.54;100.00
65329;BME280;51941;52.210;5.158;2023-04-16T01:51:06;102210.88;;;8.51;100.00
65329;BME280;51941;52.210;5.158;2023-04-16T01:53:32;102197.91;;;8.49;100.00
65329;BME280;51941;52.210;5.158;2023-04-16T01:56:01;102205.31;;;8.60;100.00
65329;BME280;51941;52.210;5.158;2023-04-16T01:58:27;102206.41;;;8.51;100.00
65329;BME280;51941;52.210;5.158;2023-04-16T02:00:55;102204.72;;;8.58;100.00
65329;BME280;51941;52.210;5.158;2023-04-16T02:03:22;102207.16;;;8.60;100.00
65329;BME280;51941;52.210;5.158;2023-04-16T02:05:49;102201.97;;;8.52;100.00
65329;BME280;51941;52.210;5.158;2023-04-16T02:08:16;102201.72;;;8.47;100.00
65329;BME280;51941;52.210;5.158;2023-04-16T02:10:44;102208.25;;;8.65;100.00
65329;BME280;51941;52.210;5.158;2023-04-16T02:13:13;102202.78;;;8.67;100.00
65329;BME280;51941;52.210;5.158;2023-04-16T02:15:44;102211.25;;;8.62;100.00
65329;BME280;51941;52.210;5.158;2023-04-16T02:18:11;102210.06;;;8.65;100.00
65329;BME280;51941;52.210;5.158;2023-04-16T02:20:39;102210.44;;;8.62;100.00
65329;BME280;51941;52.210;5.158;2023-04-16T02:23:06;102217.25;;;8.56;100.00
65329;BME280;51941;52.210;5.158;2023-04-16T02:25:37;102218.41;;;8.68;100.00
65329;BME280;51941;52.210;5.158;2023-04-16T02:28:05;102212.09;;;8.48;100.00
65329;BME280;51941;52.210;5.158;2023-04-16T02:30:41;102215.25;;;8.43;100.00
65329;BME280;51941;52.210;5.158;2023-04-16T02:33:09;102219.34;;;8.46;100.00
65329;BME280;51941;52.210;5.158;2023-04-16T02:35:39;102209.28;;;8.50;100.00
65329;BME280;51941;52.210;5.158;2023-04-16T02:38:06;102177.31;;;8.15;100.00
65329;BME280;51941;52.210;5.158;2023-04-16T02:40:35;102216.00;;;8.37;100.00
65329;BME280;51941;52.210;5.158;2023-04-16T02:43:01;102214.91;;;8.32;100.00
65329;BME280;51941;52.210;5.158;2023-04-16T02:45:28;102224.38;;;8.41;100.00
65329;BME280;51941;52.210;5.158;2023-04-16T02:47:57;102212.34;;;8.38;100.00
65329;BME280;51941;52.210;5.158;2023-04-16T02:50:25;102202.72;;;8.31;100.00
65329;BME280;51941;52.210;5.158;2023-04-16T02:52:51;102216.00;;;8.37;100.00
65329;BME280;51941;52.210;5.158;2023-04-16T02:55:18;102220.19;;;8.32;100.00
65329;BME280;51941;52.210;5.158;2023-04-16T02:57:45;102221.53;;;8.42;100.00
65329;BME280;51941;52.210;5.158;2023-04-16T03:00:12;102191.06;;;8.11;100.00
65329;BME280;51941;52.210;5.158;2023-04-16T03:02:39;102228.91;;;8.32;100.00
65329;BME280;51941;52.210;5.158;2023-04-16T03:05:09;102210.44;;;8.18;100.00
65329;BME280;51941;52.210;5.158;2023-04-16T03:07:36;102228.81;;;8.26;100.00
65329;BME280;51941;52.210;5.158;2023-04-16T03:10:04;102237.84;;;8.31;100.00
65329;BME280;51941;52.210;5.158;2023-04-16T03:12:31;102227.91;;;8.33;100.00
65329;BME280;51941;52.210;5.158;2023-04-16T03:14:59;102235.72;;;8.27;100.00
65329;BME280;51941;52.210;5.158;2023-04-16T03:17:26;102239.19;;;8.13;100.00
65329;BME280;51941;52.210;5.158;2023-04-16T03:19:52;102238.63;;;8.17;100.00
65329;BME280;51941;52.210;5.158;2023-04-16T03:22:20;102230.19;;;8.36;100.00
65329;BME280;51941;52.210;5.158;2023-04-16T03:24:47;102235.28;;;8.38;100.00
65329;BME280;51941;52.210;5.158;2023-04-16T03:27:14;102246.00;;;8.22;100.00
65329;BME280;51941;52.210;5.158;2023-04-16T03:29:40;102242.16;;;8.24;100.00
65329;BME280;51941;52.210;5.158;2023-04-16T03:32:08;102212.16;;;7.96;100.00
65329;BME280;51941;52.210;5.158;2023-04-16T03:34:36;102205.88;;;7.97;100.00
65329;BME280;51941;52.210;5.158;2023-04-16T03:37:03;102240.63;;;8.15;100.00
65329;BME280;51941;52.210;5.158;2023-04-16T03:39:32;102236.97;;;8.16;100.00
65329;BME280;51941;52.210;5.158;2023-04-16T03:41:59;102184.84;;;7.89;100.00
65329;BME280;51941;52.210;5.158;2023-04-16T03:44:26;102238.72;;;8.09;100.00
65329;BME280;51941;52.210;5.158;2023-04-16T03:46:54;102246.19;;;8.20;100.00
65329;BME280;51941;52.210;5.158;2023-04-16T03:49:21;102242.47;;;8.15;100.00
65329;BME280;51941;52.210;5.158;2023-04-16T03:51:48;102247.00;;;8.21;100.00
65329;BME280;51941;52.210;5.158;2023-04-16T03:54:15;102256.56;;;8.22;100.00
65329;BME280;51941;52.210;5.158;2023-04-16T03:56:49;102254.91;;;8.21;100.00
65329;BME280;51941;52.210;5.158;2023-04-16T03:59:17;102254.53;;;8.24;100.00
65329;BME280;51941;52.210;5.158;2023-04-16T04:01:44;102257.38;;;8.22;100.00
65329;BME280;51941;52.210;5.158;2023-04-16T04:04:11;102258.66;;;8.26;100.00
65329;BME280;51941;52.210;5.158;2023-04-16T04:06:37;102258.72;;;8.18;100.00
65329;BME280;51941;52.210;5.158;2023-04-16T04:09:04;102251.38;;;8.14;100.00
65329;BME280;51941;52.210;5.158;2023-04-16T04:11:31;102252.81;;;8.16;100.00
65329;BME280;51941;52.210;5.158;2023-04-16T04:13:59;102250.81;;;8.18;100.00
65329;BME280;51941;52.210;5.158;2023-04-16T04:16:26;102256.25;;;8.02;100.00
65329;BME280;51941;52.210;5.158;2023-04-16T04:18:53;102250.47;;;8.21;100.00
65329;BME280;51941;52.210;5.158;2023-04-16T04:21:21;102237.81;;;8.17;100.00
65329;BME280;51941;52.210;5.158;2023-04-16T04:23:47;102229.88;;;8.17;100.00
65329;BME280;51941;52.210;5.158;2023-04-16T04:26:14;102252.09;;;8.22;100.00
65329;BME280;51941;52.210;5.158;2023-04-16T04:28:41;102270.84;;;8.27;100.00
65329;BME280;51941;52.210;5.158;2023-04-16T04:31:09;102256.00;;;8.26;100.00
65329;BME280;51941;52.210;5.158;2023-04-16T04:33:36;102254.09;;;8.20;100.00
65329;BME280;51941;52.210;5.158;2023-04-16T04:36:03;102259.56;;;8.19;100.00
65329;BME280;51941;52.210;5.158;2023-04-16T04:38:31;102253.47;;;8.18;100.00
65329;BME280;51941;52.210;5.158;2023-04-16T04:40:58;102261.66;;;8.23;100.00
65329;BME280;51941;52.210;5.158;2023-04-16T04:43:30;102271.47;;;8.15;100.00
65329;BME280;51941;52.210;5.158;2023-04-16T04:45:57;102270.56;;;8.22;100.00
65329;BME280;51941;52.210;5.158;2023-04-16T04:48:27;102261.66;;;8.23;100.00
65329;BME280;51941;52.210;5.158;2023-04-16T04:50:54;102267.47;;;8.19;100.00
65329;BME280;51941;52.210;5.158;2023-04-16T04:53:22;102270.81;;;8.13;100.00
65329;BME280;51941;52.210;5.158;2023-04-16T04:55:49;102276.53;;;8.16;100.00
65329;BME280;51941;52.210;5.158;2023-04-16T04:58:15;102284.59;;;8.23;100.00
65329;BME280;51941;52.210;5.158;2023-04-16T05:00:42;102273.72;;;8.18;100.00
65329;BME280;51941;52.210;5.158;2023-04-16T05:03:10;102279.66;;;8.20;100.00
65329;BME280;51941;52.210;5.158;2023-04-16T05:05:38;102277.38;;;8.17;100.00
65329;BME280;51941;52.210;5.158;2023-04-16T05:08:05;102273.91;;;8.16;100.00
65329;BME280;51941;52.210;5.158;2023-04-16T05:10:31;102293.50;;;8.22;100.00
65329;BME280;51941;52.210;5.158;2023-04-16T05:12:58;102289.56;;;8.18;100.00
65329;BME280;51941;52.210;5.158;2023-04-16T05:15:25;102279.94;;;8.25;100.00
65329;BME280;51941;52.210;5.158;2023-04-16T05:17:51;102287.84;;;8.25;100.00
65329;BME280;51941;52.210;5.158;2023-04-16T05:20:20;102282.56;;;8.25;100.00
65329;BME280;51941;52.210;5.158;2023-04-16T05:22:49;102290.69;;;8.23;100.00
65329;BME280;51941;52.210;5.158;2023-04-16T05:25:16;102294.06;;;8.32;100.00
65329;BME280;51941;52.210;5.158;2023-04-16T05:27:42;102257.47;;;8.14;100.00
65329;BME280;51941;52.210;5.158;2023-04-16T05:30:09;102283.13;;;8.35;100.00
65329;BME280;51941;52.210;5.158;2023-04-16T05:32:38;102282.69;;;8.31;100.00
65329;BME280;51941;52.210;5.158;2023-04-16T05:35:05;102303.06;;;8.37;100.00
65329;BME280;51941;52.210;5.158;2023-04-16T05:37:31;102304.06;;;8.51;100.00
65329;BME280;51941;52.210;5.158;2023-04-16T05:39:59;102300.25;;;8.39;100.00
65329;BME280;51941;52.210;5.158;2023-04-16T05:42:26;102292.34;;;8.39;100.00
65329;BME280;51941;52.210;5.158;2023-04-16T05:44:53;102292.59;;;8.44;100.00
65329;BME280;51941;52.210;5.158;2023-04-16T05:47:19;102270.03;;;8.27;100.00
65329;BME280;51941;52.210;5.158;2023-04-16T05:49:46;102268.94;;;8.21;100.00
65329;BME280;51941;52.210;5.158;2023-04-16T05:52:13;102298.44;;;8.39;100.00
65329;BME280;51941;52.210;5.158;2023-04-16T05:54:40;102297.63;;;8.54;100.00
65329;BME280;51941;52.210;5.158;2023-04-16T05:57:08;102308.25;;;8.60;100.00
65329;BME280;51941;52.210;5.158;2023-04-16T05:59:35;102306.34;;;8.54;100.00
65329;BME280;51941;52.210;5.158;2023-04-16T06:02:01;102303.38;;;8.57;100.00
65329;BME280;51941;52.210;5.158;2023-04-16T06:04:28;102309.91;;;8.61;100.00
65329;BME280;51941;52.210;5.158;2023-04-16T06:06:55;102309.81;;;8.55;100.00
65329;BME280;51941;52.210;5.158;2023-04-16T06:09:22;102303.97;;;8.59;100.00
65329;BME280;51941;52.210;5.158;2023-04-16T06:11:48;102308.38;;;8.67;100.00
65329;BME280;51941;52.210;5.158;2023-04-16T06:14:16;102309.63;;;8.56;100.00
65329;BME280;51941;52.210;5.158;2023-04-16T06:16:43;102322.84;;;8.56;100.00
65329;BME280;51941;52.210;5.158;2023-04-16T06:19:10;102304.88;;;8.52;100.00
65329;BME280;51941;52.210;5.158;2023-04-16T06:21:37;102321.00;;;8.57;100.00
65329;BME280;51941;52.210;5.158;2023-04-16T06:24:03;102322.19;;;8.69;100.00
65329;BME280;51941;52.210;5.158;2023-04-16T06:26:30;102290.78;;;8.44;100.00
65329;BME280;51941;52.210;5.158;2023-04-16T06:28:57;102315.91;;;8.55;100.00
65329;BME280;51941;52.210;5.158;2023-04-16T06:31:25;102325.03;;;8.67;100.00
65329;BME280;51941;52.210;5.158;2023-04-16T06:33:51;102324.38;;;8.65;100.00
65329;BME280;51941;52.210;5.158;2023-04-16T06:36:18;102326.56;;;8.62;100.00
65329;BME280;51941;52.210;5.158;2023-04-16T06:38:45;102328.28;;;8.69;100.00
65329;BME280;51941;52.210;5.158;2023-04-16T06:41:12;102325.75;;;8.61;100.00
65329;BME280;51941;52.210;5.158;2023-04-16T06:43:39;102326.28;;;8.57;100.00
65329;BME280;51941;52.210;5.158;2023-04-16T06:46:06;102337.75;;;8.64;100.00
65329;BME280;51941;52.210;5.158;2023-04-16T06:48:34;102325.28;;;8.72;100.00
65329;BME280;51941;52.210;5.158;2023-04-16T06:51:00;102319.66;;;8.75;100.00
65329;BME280;51941;52.210;5.158;2023-04-16T06:53:30;102315.19;;;8.47;100.00
65329;BME280;51941;52.210;5.158;2023-04-16T06:55:57;102311.16;;;8.51;100.00
65329;BME280;51941;52.210;5.158;2023-04-16T06:58:24;102335.84;;;8.72;100.00
65329;BME280;51941;52.210;5.158;2023-04-16T07:00:51;102338.03;;;8.69;100.00
65329;BME280;51941;52.210;5.158;2023-04-16T07:03:18;102333.31;;;8.64;100.00
65329;BME280;51941;52.210;5.158;2023-04-16T07:05:46;102342.31;;;8.70;100.00
65329;BME280;51941;52.210;5.158;2023-04-16T07:08:13;102354.97;;;8.74;100.00
65329;BME280;51941;52.210;5.158;2023-04-16T07:10:39;102354.88;;;8.82;100.00
65329;BME280;51941;52.210;5.158;2023-04-16T07:13:07;102356.06;;;8.95;100.00
65329;BME280;51941;52.210;5.158;2023-04-16T07:15:33;102361.72;;;8.92;100.00
65329;BME280;51941;52.210;5.158;2023-04-16T07:18:00;102360.44;;;8.88;100.00
65329;BME280;51941;52.210;5.158;2023-04-16T07:20:27;102360.59;;;8.86;100.00
65329;BME280;51941;52.210;5.158;2023-04-16T07:22:55;102330.94;;;8.55;100.00
65329;BME280;51941;52.210;5.158;2023-04-16T07:25:23;102364.53;;;8.75;100.00
65329;BME280;51941;52.210;5.158;2023-04-16T07:27:50;102350.69;;;8.73;100.00
65329;BME280;51941;52.210;5.158;2023-04-16T07:30:17;102359.78;;;8.86;100.00
65329;BME280;51941;52.210;5.158;2023-04-16T07:32:43;102351.97;;;8.77;100.00
65329;BME280;51941;52.210;5.158;2023-04-16T07:35:10;102364.53;;;8.90;100.00
65329;BME280;51941;52.210;5.158;2023-04-16T07:37:37;102368.81;;;8.91;100.00
65329;BME280;51941;52.210;5.158;2023-04-16T07:40:06;102368.66;;;8.93;100.00
65329;BME280;51941;52.210;5.158;2023-04-16T07:42:33;102375.28;;;9.03;100.00
65329;BME280;51941;52.210;5.158;2023-04-16T07:45:00;102377.56;;;8.92;100.00
65329;BME280;51941;52.210;5.158;2023-04-16T07:47:27;102375.47;;;9.02;100.00
65329;BME280;51941;52.210;5.158;2023-04-16T07:49:53;102381.38;;;9.04;100.00
65329;BME280;51941;52.210;5.158;2023-04-16T07:52:20;102380.84;;;8.94;100.00
65329;BME280;51941;52.210;5.158;2023-04-16T07:54:47;102384.13;;;9.10;100.00
65329;BME280;51941;52.210;5.158;2023-04-16T07:57:15;102393.13;;;9.16;100.00
65329;BME280;51941;52.210;5.158;2023-04-16T07:59:41;102387.31;;;9.21;100.00
65329;BME280;51941;52.210;5.158;2023-04-16T08:02:10;102360.16;;;8.97;100.00
65329;BME280;51941;52.210;5.158;2023-04-16T08:04:38;102391.00;;;9.20;100.00
65329;BME280;51941;52.210;5.158;2023-04-16T08:07:06;102387.19;;;9.14;100.00
65329;BME280;51941;52.210;5.158;2023-04-16T08:09:33;102396.44;;;9.18;100.00
65329;BME280;51941;52.210;5.158;2023-04-16T08:12:00;102402.53;;;9.33;100.00
65329;BME280;51941;52.210;5.158;2023-04-16T08:14:28;102396.72;;;9.23;100.00
65329;BME280;51941;52.210;5.158;2023-04-16T08:16:55;102404.63;;;9.23;100.00
65329;BME280;51941;52.210;5.158;2023-04-16T08:19:21;102404.53;;;9.16;100.00
65329;BME280;51941;52.210;5.158;2023-04-16T08:21:48;102398.78;;;9.13;100.00
65329;BME280;51941;52.210;5.158;2023-04-16T08:24:15;102402.56;;;9.18;100.00
65329;BME280;51941;52.210;5.158;2023-04-16T08:26:42;102412.31;;;9.18;100.00
65329;BME280;51941;52.210;5.158;2023-04-16T08:29:08;102401.34;;;9.21;100.00
65329;BME280;51941;52.210;5.158;2023-04-16T08:31:36;102405.91;;;9.27;100.00
65329;BME280;51941;52.210;5.158;2023-04-16T08:34:03;102407.19;;;9.31;100.00
65329;BME280;51941;52.210;5.158;2023-04-16T08:36:30;102408.81;;;9.32;100.00
65329;BME280;51941;52.210;5.158;2023-04-16T08:38:57;102413.34;;;9.38;100.00
65329;BME280;51941;52.210;5.158;2023-04-16T08:41:24;102409.44;;;9.49;100.00
65329;BME280;51941;52.210;5.158;2023-04-16T08:43:54;102413.66;;;9.43;100.00
65329;BME280;51941;52.210;5.158;2023-04-16T08:46:24;102415.81;;;9.54;100.00
65329;BME280;51941;52.210;5.158;2023-04-16T08:48:53;102420.41;;;9.46;100.00
65329;BME280;51941;52.210;5.158;2023-04-16T08:51:21;102431.78;;;9.46;100.00
65329;BME280;51941;52.210;5.158;2023-04-16T08:53:52;102425.13;;;9.36;100.00
65329;BME280;51941;52.210;5.158;2023-04-16T08:56:21;102431.31;;;9.43;100.00
65329;BME280;51941;52.210;5.158;2023-04-16T08:58:49;102429.69;;;9.42;100.00
65329;BME280;51941;52.210;5.158;2023-04-16T09:01:17;102432.50;;;9.55;100.00
65329;BME280;51941;52.210;5.158;2023-04-16T09:03:46;102440.97;;;9.50;100.00
65329;BME280;51941;52.210;5.158;2023-04-16T09:06:15;102436.03;;;9.47;100.00
65329;BME280;51941;52.210;5.158;2023-04-16T09:08:43;102437.25;;;9.45;100.00
65329;BME280;51941;52.210;5.158;2023-04-16T09:11:12;102444.16;;;9.61;100.00
65329;BME280;51941;52.210;5.158;2023-04-16T09:13:38;102440.22;;;9.56;100.00
65329;BME280;51941;52.210;5.158;2023-04-16T09:16:06;102445.16;;;9.60;100.00
65329;BME280;51941;52.210;5.158;2023-04-16T09:18:34;102438.16;;;9.52;100.00
65329;BME280;51941;52.210;5.158;2023-04-16T09:21:00;102448.16;;;9.56;100.00
65329;BME280;51941;52.210;5.158;2023-04-16T09:23:30;102446.69;;;9.69;100.00
65329;BME280;51941;52.210;5.158;2023-04-16T09:25:58;102447.47;;;9.84;100.00
65329;BME280;51941;52.210;5.158;2023-04-16T09:28:41;102421.72;;;9.56;100.00
65329;BME280;51941;52.210;5.158;2023-04-16T09:31:09;102459.44;;;9.80;100.00
65329;BME280;51941;52.210;5.158;2023-04-16T09:33:36;102456.63;;;9.81;100.00
65329;BME280;51941;52.210;5.158;2023-04-16T09:36:04;102454.44;;;9.70;100.00
65329;BME280;51941;52.210;5.158;2023-04-16T09:38:50;102467.28;;;9.73;100.00
65329;BME280;51941;52.210;5.158;2023-04-16T09:41:17;102445.34;;;9.58;100.00
65329;BME280;51941;52.210;5.158;2023-04-16T09:43:52;102468.09;;;9.74;100.00
65329;BME280;51941;52.210;5.158;2023-04-16T09:46:20;102470.38;;;9.77;100.00
65329;BME280;51941;52.210;5.158;2023-04-16T09:48:47;102475.41;;;9.72;100.00
65329;BME280;51941;52.210;5.158;2023-04-16T09:51:14;102471.03;;;9.79;100.00
65329;BME280;51941;52.210;5.158;2023-04-16T09:53:40;102471.38;;;9.76;100.00
65329;BME280;51941;52.210;5.158;2023-04-16T09:56:10;102483.56;;;9.91;100.00
65329;BME280;51941;52.210;5.158;2023-04-16T09:58:37;102470.91;;;9.87;100.00
65329;BME280;51941;52.210;5.158;2023-04-16T10:01:06;102479.84;;;9.86;100.00
65329;BME280;51941;52.210;5.158;2023-04-16T10:03:34;102478.91;;;9.93;100.00
65329;BME280;51941;52.210;5.158;2023-04-16T10:06:06;102459.19;;;9.60;100.00
65329;BME280;51941;52.210;5.158;2023-04-16T10:08:33;102478.03;;;9.86;100.00
65329;BME280;51941;52.210;5.158;2023-04-16T10:11:01;102479.91;;;9.92;100.00
65329;BME280;51941;52.210;5.158;2023-04-16T10:13:29;102464.16;;;9.84;100.00
65329;BME280;51941;52.210;5.158;2023-04-16T10:15:56;102481.19;;;9.97;100.00
65329;BME280;51941;52.210;5.158;2023-04-16T10:18:23;102479.09;;;10.07;100.00
65329;BME280;51941;52.210;5.158;2023-04-16T10:20:50;102479.31;;;10.12;100.00
65329;BME280;51941;52.210;5.158;2023-04-16T10:23:18;102479.97;;;10.14;100.00
65329;BME280;51941;52.210;5.158;2023-04-16T10:25:46;102484.69;;;10.18;100.00
65329;BME280;51941;52.210;5.158;2023-04-16T10:28:14;102480.22;;;10.19;100.00
65329;BME280;51941;52.210;5.158;2023-04-16T10:30:43;102480.09;;;10.27;100.00
65329;BME280;51941;52.210;5.158;2023-04-16T10:33:18;102485.38;;;10.27;100.00
65329;BME280;51941;52.210;5.158;2023-04-16T10:35:45;102447.41;;;10.13;100.00
65329;BME280;51941;52.210;5.158;2023-04-16T10:38:21;102450.41;;;10.10;100.00
65329;BME280;51941;52.210;5.158;2023-04-16T10:40:49;102482.56;;;10.28;100.00
65329;BME280;51941;52.210;5.158;2023-04-16T10:43:17;102501.56;;;10.17;100.00
65329;BME280;51941;52.210;5.158;2023-04-16T10:45:46;102489.44;;;10.23;100.00
65329;BME280;51941;52.210;5.158;2023-04-16T10:48:17;102476.81;;;10.04;100.00
65329;BME280;51941;52.210;5.158;2023-04-16T10:50:53;102442.47;;;10.10;100.00
65329;BME280;51941;52.210;5.158;2023-04-16T10:53:22;102463.78;;;10.23;100.00
65329;BME280;51941;52.210;5.158;2023-04-16T10:55:56;102488.72;;;10.36;100.00
65329;BME280;51941;52.210;5.158;2023-04-16T10:58:26;102473.56;;;10.23;100.00
65329;BME280;51941;52.210;5.158;2023-04-16T11:00:58;102487.34;;;10.40;100.00
65329;BME280;51941;52.210;5.158;2023-04-16T11:03:24;102497.25;;;10.31;100.00
65329;BME280;51941;52.210;5.158;2023-04-16T11:05:52;102497.34;;;10.44;100.00
65329;BME280;51941;52.210;5.158;2023-04-16T11:08:19;102491.81;;;10.39;100.00
65329;BME280;51941;52.210;5.158;2023-04-16T11:10:50;102490.06;;;10.46;100.00
65329;BME280;51941;52.210;5.158;2023-04-16T11:13:17;102500.31;;;10.35;100.00
65329;BME280;51941;52.210;5.158;2023-04-16T11:15:47;102497.66;;;10.35;100.00
65329;BME280;51941;52.210;5.158;2023-04-16T11:18:18;102491.19;;;10.37;100.00
65329;BME280;51941;52.210;5.158;2023-04-16T11:20:45;102476.13;;;10.16;100.00
65329;BME280;51941;52.210;5.158;2023-04-16T11:23:12;102484.13;;;10.23;100.00
65329;BME280;51941;52.210;5.158;2023-04-16T11:25:38;102502.06;;;10.42;100.00
65329;BME280;51941;52.210;5.158;2023-04-16T11:28:05;102503.75;;;10.50;100.00
65329;BME280;51941;52.210;5.158;2023-04-16T11:30:33;102475.88;;;10.54;100.00
65329;BME280;51941;52.210;5.158;2023-04-16T11:33:01;102491.13;;;10.73;100.00
65329;BME280;51941;52.210;5.158;2023-04-16T11:35:29;102482.44;;;10.79;100.00
65329;BME280;51941;52.210;5.158;2023-04-16T11:37:57;102502.47;;;10.88;100.00
65329;BME280;51941;52.210;5.158;2023-04-16T11:40:24;102476.41;;;10.70;100.00
65329;BME280;51941;52.210;5.158;2023-04-16T11:42:54;102489.66;;;10.70;100.00
65329;BME280;51941;52.210;5.158;2023-04-16T11:45:21;102497.91;;;10.61;100.00
65329;BME280;51941;52.210;5.158;2023-04-16T11:47:49;102499.88;;;10.74;100.00
65329;BME280;51941;52.210;5.158;2023-04-16T11:50:19;102477.53;;;10.76;100.00
65329;BME280;51941;52.210;5.158;2023-04-16T11:52:48;102471.56;;;10.74;100.00
65329;BME280;51941;52.210;5.158;2023-04-16T11:55:15;102500.75;;;11.02;100.00
65329;BME280;51941;52.210;5.158;2023-04-16T11:57:42;102496.81;;;11.19;100.00
65329;BME280;51941;52.210;5.158;2023-04-16T12:00:11;102510.44;;;11.16;100.00
65329;BME280;51941;52.210;5.158;2023-04-16T12:02:40;102507.03;;;10.94;100.00
65329;BME280;51941;52.210;5.158;2023-04-16T12:05:25;102518.03;;;10.98;100.00
65329;BME280;51941;52.210;5.158;2023-04-16T12:07:53;102501.31;;;10.97;100.00
65329;BME280;51941;52.210;5.158;2023-04-16T12:10:20;102510.69;;;10.93;100.00
65329;BME280;51941;52.210;5.158;2023-04-16T12:12:47;102513.47;;;10.85;100.00
65329;BME280;51941;52.210;5.158;2023-04-16T12:15:14;102447.19;;;10.57;100.00
65329;BME280;51941;52.210;5.158;2023-04-16T12:17:40;102501.94;;;10.99;100.00
65329;BME280;51941;52.210;5.158;2023-04-16T12:20:08;102513.03;;;11.10;100.00
65329;BME280;51941;52.210;5.158;2023-04-16T12:22:36;102507.09;;;11.07;100.00
65329;BME280;51941;52.210;5.158;2023-04-16T12:25:05;102509.13;;;11.33;100.00
65329;BME280;51941;52.210;5.158;2023-04-16T12:27:43;102509.31;;;11.32;100.00
65329;BME280;51941;52.210;5.158;2023-04-16T12:30:11;102513.41;;;11.06;100.00
65329;BME280;51941;52.210;5.158;2023-04-16T12:32:39;102509.91;;;11.27;100.00
65329;BME280;51941;52.210;5.158;2023-04-16T12:35:07;102504.94;;;11.18;100.00
65329;BME280;51941;52.210;5.158;2023-04-16T12:37:34;102483.97;;;11.23;100.00
65329;BME280;51941;52.210;5.158;2023-04-16T12:40:00;102504.66;;;11.40;100.00
65329;BME280;51941;52.210;5.158;2023-04-16T12:42:30;102498.16;;;11.43;100.00
65329;BME280;51941;52.210;5.158;2023-04-16T12:45:00;102500.91;;;11.56;100.00
65329;BME280;51941;52.210;5.158;2023-04-16T12:47:28;102501.63;;;11.43;100.00
65329;BME280;51941;52.210;5.158;2023-04-16T12:49:55;102504.97;;;11.59;100.00